Time;durP1;ratioP1;P1;durP2;ratioP2;P2;SDS_P1;SDS_P2;PMS_P1;PMS_P2;Temp;Humidity;BMP_temperature;BMP_pressure;BME280_temperature;BME280_humidity;BME280_pressure;Samples;Min_cycle;Max_cycle;Signal;HPM_P1;HPM_P2
2022/09/07 00:00:49;;;;;;;30.23;23.90;;;;;;;24.49;64.20;101481.03;5070992;28;20037;-76
2022/09/07 00:03:14;;;;;;;37.03;24.08;;;;;;;24.15;65.93;101487.66;5072599;28;20020;-75
2022/09/07 00:05:44;;;;;;;27.40;21.15;;;;;;;24.19;65.77;101449.41;5067701;28;20472;-74
2022/09/07 00:08:11;;;;;;;25.63;18.08;;;;;;;23.03;70.01;101412.69;5065322;28;20025;-74
2022/09/07 00:10:36;;;;;;;27.73;16.67;;;;;;;22.91;70.96;101406.00;5062029;28;20035;-73
2022/09/07 00:13:03;;;;;;;20.98;14.80;;;;;;;22.41;71.56;101421.06;5061561;28;20127;-76
2022/09/07 00:15:28;;;;;;;22.70;14.25;;;;;;;22.84;70.68;101422.00;5064036;28;20047;-74
2022/09/07 00:17:54;;;;;;;20.17;13.45;;;;;;;23.04;67.91;101428.03;5060608;28;20025;-71
2022/09/07 00:20:19;;;;;;;18.35;10.38;;;;;;;23.03;67.80;101420.09;5062134;28;20036;-73
2022/09/07 00:22:45;;;;;;;16.92;9.82;;;;;;;22.98;67.33;101399.03;5080507;28;20124;-74
2022/09/07 00:25:11;;;;;;;6.93;4.05;;;;;;;22.45;66.41;101406.50;5080352;28;20036;-75
2022/09/07 00:27:37;;;;;;;4.88;2.92;;;;;;;21.51;68.57;101420.69;5072048;28;20174;-72
2022/09/07 00:30:04;;;;;;;4.60;2.50;;;;;;;20.89;71.14;101417.72;5072550;28;20032;-72
2022/09/07 00:32:29;;;;;;;7.28;2.40;;;;;;;20.93;72.63;101399.69;5071705;28;20033;-73
2022/09/07 00:34:54;;;;;;;8.80;2.75;;;;;;;20.83;72.48;101402.44;5072061;28;20078;-74
2022/09/07 00:37:20;;;;;;;8.93;3.03;;;;;;;21.40;70.55;101377.28;5084337;28;20044;-72
2022/09/07 00:39:45;;;;;;;6.82;2.17;;;;;;;21.59;70.00;101365.38;5092019;28;20040;-73
2022/09/07 00:42:11;;;;;;;7.57;2.17;;;;;;;22.21;67.64;101361.03;5092703;28;20093;-72
2022/09/07 00:44:42;;;;;;;3.17;1.77;;;;;;;21.96;68.38;101339.38;5092323;28;20028;-72
2022/09/07 00:47:19;;;;;;;6.82;2.47;;;;;;;21.89;68.22;101320.56;5091526;28;20036;-69
2022/09/07 00:49:50;;;;;;;5.07;2.92;;;;;;;21.83;69.02;101297.09;5091845;28;20273;-69
2022/09/07 00:52:19;;;;;;;10.27;2.78;;;;;;;21.74;70.19;101302.31;5091876;28;20511;-73
2022/09/07 00:54:52;;;;;;;7.82;2.75;;;;;;;21.90;69.75;101319.44;5091780;28;20028;-69
2022/09/07 00:57:18;;;;;;;7.90;3.63;;;;;;;21.87;69.92;101328.25;5091780;28;20043;-70
2022/09/07 00:59:48;;;;;;;8.05;4.50;;;;;;;22.58;67.23;101331.84;5092199;28;20032;-68
2022/09/07 01:02:15;;;;;;;10.10;3.92;;;;;;;22.84;66.62;101326.84;5091785;28;20071;-70
2022/09/07 01:04:43;;;;;;;7.93;3.33;;;;;;;22.62;66.88;101332.09;5091696;28;20036;-71
2022/09/07 01:07:08;;;;;;;6.38;3.53;;;;;;;22.34;68.13;101338.44;5091209;28;20496;-69
2022/09/07 01:09:34;;;;;;;8.10;3.03;;;;;;;22.90;65.63;101338.59;5091845;28;20040;-70
2022/09/07 01:12:01;;;;;;;12.93;3.55;;;;;;;23.00;65.85;101328.28;5092042;28;20035;-71
2022/09/07 01:14:34;;;;;;;10.68;4.47;;;;;;;23.35;64.54;101329.75;5091192;28;20134;-70
2022/09/07 01:17:23;;;;;;;9.85;3.92;;;;;;;22.91;66.11;101335.56;5091334;28;20454;-70
2022/09/07 01:20:10;;;;;;;9.65;4.15;;;;;;;22.79;66.52;101318.72;5091331;28;20453;-71
2022/09/07 01:22:51;;;;;;;7.53;4.03;;;;;;;22.82;66.51;101307.16;5091354;28;20048;-70
2022/09/07 01:25:35;;;;;;;7.65;4.47;;;;;;;23.24;65.26;101304.34;5091263;28;20127;-72
2022/09/07 01:28:25;;;;;;;9.45;4.25;;;;;;;22.64;66.79;101286.84;5091094;28;20143;-70
2022/09/07 01:30:55;;;;;;;9.48;3.33;;;;;;;22.52;67.20;101282.88;5091310;28;20062;-70
2022/09/07 01:33:42;;;;;;;9.38;4.07;;;;;;;22.56;67.23;101278.44;5091037;28;20044;-69
2022/09/07 01:36:29;;;;;;;5.28;3.83;;;;;;;22.15;69.43;101272.63;5091601;28;20092;-69
2022/09/07 01:38:59;;;;;;;7.07;4.13;;;;;;;22.03;69.74;101277.72;5091160;28;20040;-69
2022/09/07 01:41:38;;;;;;;4.30;3.35;;;;;;;22.15;69.01;101289.06;5090942;28;20060;-69
2022/09/07 01:44:17;;;;;;;6.43;3.95;;;;;;;22.63;67.18;101279.75;5072566;28;20471;-72
2022/09/07 01:46:51;;;;;;;6.82;4.28;;;;;;;23.03;65.53;101289.34;5091089;28;20111;-71
2022/09/07 01:49:23;;;;;;;7.57;3.85;;;;;;;23.07;65.93;101298.59;5091268;28;20411;-71
2022/09/07 01:51:54;;;;;;;7.00;4.07;;;;;;;23.25;64.62;101288.72;5090856;28;20036;-71
2022/09/07 01:54:27;;;;;;;5.30;3.85;;;;;;;23.59;64.08;101292.00;5091143;28;20031;-71
2022/09/07 01:56:57;;;;;;;8.70;3.60;;;;;;;23.92;62.69;101279.88;5091388;28;20028;-69
2022/09/07 01:59:47;;;;;;;8.65;3.67;;;;;;;24.01;62.77;101278.06;5091246;28;20031;-69
2022/09/07 02:02:39;;;;;;;5.75;3.88;;;;;;;24.07;62.58;101276.06;5094419;28;20036;-70
2022/09/07 02:05:09;;;;;;;7.70;3.80;;;;;;;24.04;63.12;101284.91;5094843;28;20032;-70
2022/09/07 02:07:49;;;;;;;7.65;3.92;;;;;;;24.17;61.92;101281.38;5094553;28;20036;-71
2022/09/07 02:10:22;;;;;;;6.22;3.97;;;;;;;24.24;61.93;101271.59;5094793;28;20328;-70
2022/09/07 02:12:53;;;;;;;7.95;3.33;;;;;;;24.09;62.12;101284.81;5095043;28;20036;-70
2022/09/07 02:15:28;;;;;;;6.97;2.88;;;;;;;23.09;64.47;101287.31;5094150;28;20560;-70
2022/09/07 02:18:02;;;;;;;4.90;2.42;;;;;;;23.52;64.22;101283.34;5094940;28;20526;-69
2022/09/07 02:20:33;;;;;;;9.32;2.40;;;;;;;23.52;62.67;101288.84;5094139;28;20092;-71
2022/09/07 02:23:03;;;;;;;2.90;2.10;;;;;;;23.92;61.68;101295.56;5094159;28;20042;-69
2022/09/07 02:25:36;;;;;;;5.32;1.90;;;;;;;23.33;62.67;101296.31;5094623;28;20029;-71
2022/09/07 02:28:15;;;;;;;4.35;2.08;;;;;;;23.10;62.98;101281.53;5094247;28;20056;-69
2022/09/07 02:30:41;;;;;;;2.13;1.77;;;;;;;23.14;63.47;101274.34;5075677;28;20032;-72
2022/09/07 02:33:06;;;;;;;3.85;2.10;;;;;;;23.36;62.85;101273.75;5095078;28;20081;-70
2022/09/07 02:35:33;;;;;;;2.38;1.60;;;;;;;23.77;61.49;101279.34;5094603;28;20036;-70
2022/09/07 02:38:02;;;;;;;4.22;1.63;;;;;;;23.73;61.91;101279.13;5094406;28;20032;-70
2022/09/07 02:40:27;;;;;;;2.97;2.00;;;;;;;23.72;61.33;101288.50;5094122;28;20056;-71
2022/09/07 02:42:53;;;;;;;1.70;1.48;;;;;;;23.94;61.38;101288.63;5094378;28;20035;-70
2022/09/07 02:45:18;;;;;;;6.18;2.08;;;;;;;23.93;61.19;101303.47;5094032;28;20504;-70
2022/09/07 02:48:07;;;;;;;2.78;1.60;;;;;;;23.98;60.56;101297.88;5094999;28;20077;-70
2022/09/07 02:51:02;;;;;;;1.60;1.50;;;;;;;24.03;61.01;101300.56;5094147;28;20699;-70
2022/09/07 02:53:36;;;;;;;2.85;2.03;;;;;;;24.07;60.58;101300.78;5093670;28;20090;-69
2022/09/07 02:56:23;;;;;;;2.15;1.70;;;;;;;24.08;60.24;101294.97;5093904;28;20552;-69
2022/09/07 02:58:57;;;;;;;3.97;1.85;;;;;;;24.16;60.06;101285.22;5093885;28;20047;-70
2022/09/07 03:01:55;;;;;;;3.90;1.83;;;;;;;24.15;60.99;101278.09;5093670;28;20040;-70
2022/09/07 03:04:46;;;;;;;3.42;2.13;;;;;;;24.21;60.87;101265.91;5093706;28;20083;-70
2022/09/07 03:07:16;;;;;;;2.90;1.92;;;;;;;24.20;61.25;101256.84;5075111;28;20454;-68
2022/09/07 03:09:47;;;;;;;3.13;2.22;;;;;;;24.25;61.06;101256.72;5093975;28;20059;-71
2022/09/07 03:12:13;;;;;;;2.75;2.50;;;;;;;24.30;60.64;101247.56;5094331;28;20042;-69
2022/09/07 03:14:40;;;;;;;2.63;2.05;;;;;;;24.29;61.00;101249.50;5090482;28;20028;-69
2022/09/07 03:17:06;;;;;;;4.25;2.22;;;;;;;24.26;61.15;101236.38;5091802;28;20522;-70
2022/09/07 03:19:31;;;;;;;4.30;2.92;;;;;;;24.35;61.79;101228.25;5093634;28;20081;-70
2022/09/07 03:21:57;;;;;;;6.88;3.40;;;;;;;24.26;61.39;101216.34;5093621;28;20388;-71
2022/09/07 03:24:22;;;;;;;6.80;3.00;;;;;;;24.34;60.84;101210.13;5093292;28;20052;-71
2022/09/07 03:26:50;;;;;;;6.95;3.10;;;;;;;24.37;60.53;101201.28;5093881;28;20504;-70
2022/09/07 03:29:16;;;;;;;3.90;3.20;;;;;;;24.27;60.75;101191.31;5093368;28;20025;-71
2022/09/07 03:31:41;;;;;;;6.93;4.30;;;;;;;24.00;61.76;101190.50;5093123;28;20161;-68
2022/09/07 03:34:07;;;;;;;5.57;5.07;;;;;;;23.91;61.82;101192.31;5093573;28;20039;-71
2022/09/07 03:36:33;;;;;;;10.35;6.03;;;;;;;23.88;62.32;101193.75;5093133;28;20035;-69
2022/09/07 03:38:59;;;;;;;9.90;5.55;;;;;;;23.98;61.60;101198.25;5094133;28;20016;-69
2022/09/07 03:41:25;;;;;;;8.30;6.95;;;;;;;23.97;61.91;101191.94;5093077;28;20072;-70
2022/09/07 03:43:51;;;;;;;9.45;7.32;;;;;;;23.94;61.69;101192.53;5093207;28;20036;-70
2022/09/07 03:46:19;;;;;;;8.60;7.72;;;;;;;23.88;61.78;101192.94;5092920;28;20431;-69
2022/09/07 03:48:47;;;;;;;14.02;10.07;;;;;;;24.20;60.89;101190.09;5093199;28;20028;-69
2022/09/07 03:51:14;;;;;;;9.93;8.52;;;;;;;24.04;61.28;101186.88;5093211;28;20035;-69
2022/09/07 03:53:43;;;;;;;14.70;10.77;;;;;;;24.27;60.67;101198.75;5093383;28;20077;-70
2022/09/07 03:56:13;;;;;;;15.93;13.02;;;;;;;24.30;60.47;101201.69;5093095;28;20038;-69
2022/09/07 03:58:39;;;;;;;;;;;;;;;24.25;60.39;101207.28;5093530;28;20040;-69
2022/09/07 04:01:07;;;;;;;16.38;12.13;;;;;;;24.21;60.95;101199.97;5091023;28;19924;-70
2022/09/07 04:03:32;;;;;;;16.55;13.38;;;;;;;24.35;60.84;101204.31;5087012;28;20163;-71
2022/09/07 04:05:59;;;;;;;14.18;12.05;;;;;;;24.33;61.03;101201.06;5085533;28;20020;-71
2022/09/07 04:08:29;;;;;;;15.20;12.73;;;;;;;24.49;60.31;101209.78;5092139;28;20031;-69
2022/09/07 04:10:56;;;;;;;13.85;11.85;;;;;;;24.50;60.31;101205.09;5074171;28;20059;-71
2022/09/07 04:13:22;;;;;;;13.95;12.50;;;;;;;24.11;61.05;101197.44;5092328;28;20082;-71
2022/09/07 04:15:47;;;;;;;14.30;12.77;;;;;;;24.07;61.62;101205.50;5090532;28;20488;-69
2022/09/07 04:18:13;;;;;;;17.02;13.98;;;;;;;24.08;61.79;101200.78;5093477;28;20032;-69
2022/09/07 04:20:38;;;;;;;13.77;12.32;;;;;;;23.96;62.44;101192.25;5092046;28;20561;-70
2022/09/07 04:23:03;;;;;;;17.48;12.77;;;;;;;24.01;62.51;101200.38;5091903;28;20095;-70
2022/09/07 04:25:29;;;;;;;16.58;13.23;;;;;;;23.97;61.96;101193.84;5085187;28;20033;-71
2022/09/07 04:27:55;;;;;;;16.48;13.30;;;;;;;24.01;62.81;101192.94;5053735;28;20037;-69
2022/09/07 04:30:21;;;;;;;19.08;12.98;;;;;;;24.08;62.22;101190.63;5071977;28;20313;-72
2022/09/07 04:32:46;;;;;;;17.40;13.85;;;;;;;24.01;62.20;101198.44;5072618;28;20507;-72
2022/09/07 04:35:12;;;;;;;16.45;13.48;;;;;;;24.04;62.40;101199.78;5071743;28;20062;-70
2022/09/07 04:37:37;;;;;;;15.07;13.27;;;;;;;23.95;62.60;101188.69;5071622;28;20056;-71
2022/09/07 04:40:04;;;;;;;15.68;13.55;;;;;;;24.17;62.30;101196.22;5071700;28;20174;-69
2022/09/07 04:42:29;;;;;;;16.13;13.98;;;;;;;24.18;62.54;101193.16;5071679;28;20119;-70
2022/09/07 04:44:55;;;;;;;14.32;12.93;;;;;;;24.16;62.38;101191.84;5072159;28;20040;-69
2022/09/07 04:47:20;;;;;;;16.45;13.05;;;;;;;24.21;62.62;101187.06;5071364;28;20051;-70
2022/09/07 04:49:49;;;;;;;16.27;14.45;;;;;;;24.29;62.01;101186.31;5071530;28;20089;-70
2022/09/07 04:52:16;;;;;;;14.90;12.52;;;;;;;24.36;62.52;101191.41;5071487;28;20029;-70
2022/09/07 04:54:41;;;;;;;18.63;13.90;;;;;;;24.34;61.95;101193.66;5077786;28;20044;-70
2022/09/07 04:57:08;;;;;;;16.38;13.57;;;;;;;24.38;62.11;101187.22;5085086;28;20373;-70
2022/09/07 04:59:34;;;;;;;17.77;14.05;;;;;;;24.45;61.99;101184.06;5085986;28;20596;-69
2022/09/07 05:01:59;;;;;;;18.95;14.13;;;;;;;24.42;62.31;101192.91;5091163;28;20036;-71
2022/09/07 05:04:24;;;;;;;17.05;14.07;;;;;;;24.43;62.13;101194.56;5091645;28;20043;-71
2022/09/07 05:06:52;;;;;;;18.88;14.20;;;;;;;24.51;62.42;101193.78;5090990;28;20039;-70
2022/09/07 05:09:18;;;;;;;22.55;15.35;;;;;;;24.50;61.87;101194.13;5087038;28;20028;-71
2022/09/07 05:11:43;;;;;;;24.67;18.20;;;;;;;24.51;61.99;101206.75;5086912;28;20024;-69
2022/09/07 05:14:08;;;;;;;25.35;19.92;;;;;;;24.48;62.07;101215.59;5080069;28;20056;-70
2022/09/07 05:16:34;;;;;;;29.40;22.05;;;;;;;24.70;61.03;101226.63;5081678;28;20515;-70
2022/09/07 05:19:02;;;;;;;30.50;20.30;;;;;;;24.90;60.64;101232.50;5080479;28;20032;-70
2022/09/07 05:21:29;;;;;;;24.17;18.92;;;;;;;24.86;59.99;101245.28;5080902;28;20052;-70
2022/09/07 05:23:57;;;;;;;24.85;18.08;;;;;;;24.75;60.57;101246.59;5079246;28;20083;-71
2022/09/07 05:26:25;;;;;;;26.92;19.23;;;;;;;24.88;59.94;101245.78;5080296;28;20504;-70
2022/09/07 05:28:51;;;;;;;21.27;16.65;;;;;;;24.50;61.12;101238.91;5079012;28;20032;-71
2022/09/07 05:31:19;;;;;;;24.88;15.23;;;;;;;24.46;61.34;101232.41;5080135;28;20044;-68
2022/09/07 05:33:50;;;;;;;18.15;14.82;;;;;;;24.29;61.98;101235.75;5081350;28;20033;-71
2022/09/07 05:36:15;;;;;;;16.38;12.77;;;;;;;24.01;62.09;101236.06;5080535;28;20032;-71
2022/09/07 05:38:41;;;;;;;16.38;11.88;;;;;;;24.33;61.67;101233.25;5080071;28;20413;-70
2022/09/07 05:41:20;;;;;;;17.55;11.82;;;;;;;24.31;61.60;101236.28;5079495;28;20036;-69
2022/09/07 05:43:46;;;;;;;16.17;11.35;;;;;;;24.37;62.33;101243.28;5080432;28;20124;-69
2022/09/07 05:46:13;;;;;;;13.43;10.10;;;;;;;24.42;61.99;101239.63;5080646;28;20507;-70
2022/09/07 05:48:39;;;;;;;13.73;9.52;;;;;;;24.50;61.37;101240.81;5086084;28;20442;-70
2022/09/07 05:51:05;;;;;;;11.75;9.18;;;;;;;24.27;61.38;101243.50;5087526;28;20032;-71
2022/09/07 05:53:34;;;;;;;14.93;9.43;;;;;;;24.25;61.99;101245.72;5084918;28;20119;-71
2022/09/07 05:56:01;;;;;;;13.07;9.98;;;;;;;24.15;61.80;101243.22;5080510;28;20054;-71
2022/09/07 05:58:27;;;;;;;13.40;10.07;;;;;;;24.13;61.63;101239.97;5090381;28;20523;-70
2022/09/07 06:01:00;;;;;;;12.05;9.32;;;;;;;24.35;62.05;101242.00;5072525;28;20066;-69
2022/09/07 06:03:26;;;;;;;10.70;9.10;;;;;;;24.39;60.99;101234.75;5090560;28;20028;-71
2022/09/07 06:06:04;;;;;;;13.45;10.65;;;;;;;24.25;61.62;101236.69;5091349;28;20036;-69
2022/09/07 06:08:31;;;;;;;12.73;10.20;;;;;;;24.53;61.00;101246.50;5090775;28;20073;-69
2022/09/07 06:10:56;;;;;;;14.95;10.88;;;;;;;24.45;61.34;101247.28;5090966;28;20075;-73
2022/09/07 06:13:22;;;;;;;14.20;10.18;;;;;;;24.29;61.08;101245.97;5086036;28;20040;-70
2022/09/07 06:15:47;;;;;;;13.90;10.48;;;;;;;24.42;61.23;101243.19;5083573;28;20084;-72
2022/09/07 06:18:12;;;;;;;17.45;9.65;;;;;;;24.47;61.73;101245.00;5084679;28;20020;-72
2022/09/07 06:20:38;;;;;;;15.32;10.20;;;;;;;24.55;60.90;101248.97;5083651;28;20047;-71
2022/09/07 06:23:04;;;;;;;13.63;11.05;;;;;;;24.24;61.75;101244.13;5081589;28;20484;-71
2022/09/07 06:25:29;;;;;;;16.23;10.15;;;;;;;24.26;61.32;101243.81;5081214;28;20566;-70
2022/09/07 06:27:54;;;;;;;11.65;9.32;;;;;;;23.97;62.35;101248.78;5080464;28;20035;-70
2022/09/07 06:30:20;;;;;;;14.70;10.43;;;;;;;23.97;62.27;101246.03;5090784;28;20510;-71
2022/09/07 06:32:46;;;;;;;16.00;11.13;;;;;;;24.23;61.53;101242.50;5091336;28;20032;-71
2022/09/07 06:35:13;;;;;;;14.38;11.50;;;;;;;24.16;61.92;101253.06;5090941;28;20526;-73
2022/09/07 06:37:39;;;;;;;15.40;13.23;;;;;;;23.41;63.81;101248.97;5091009;28;20028;-72
2022/09/07 06:40:06;;;;;;;20.65;14.00;;;;;;;23.49;63.72;101251.03;5090761;28;20039;-71
2022/09/07 06:42:31;;;;;;;17.98;12.27;;;;;;;23.47;63.13;101245.84;5090925;28;20110;-72
2022/09/07 06:44:57;;;;;;;15.30;12.18;;;;;;;23.69;63.88;101250.66;5091225;28;20043;-71
2022/09/07 06:47:23;;;;;;;15.75;13.30;;;;;;;23.94;62.65;101257.63;5057419;28;20043;-72
2022/09/07 06:49:48;;;;;;;20.80;12.68;;;;;;;23.65;63.30;101249.63;5071800;28;20040;-71
2022/09/07 06:52:14;;;;;;;13.27;11.35;;;;;;;23.65;63.28;101265.28;5072046;28;20024;-70
2022/09/07 06:54:39;;;;;;;16.85;12.68;;;;;;;23.74;62.83;101268.97;5073193;28;20051;-73
2022/09/07 06:57:07;;;;;;;17.67;11.48;;;;;;;24.06;61.65;101267.00;5071532;28;20454;-72
2022/09/07 06:59:33;;;;;;;17.75;11.80;;;;;;;24.14;61.60;101274.53;5072503;28;20029;-72
2022/09/07 07:01:58;;;;;;;18.15;13.07;;;;;;;24.19;62.21;101274.47;5060161;28;20054;-73
2022/09/07 07:04:24;;;;;;;12.13;9.95;;;;;;;23.94;62.21;101279.59;5073566;28;20040;-72
2022/09/07 07:06:49;;;;;;;16.48;9.48;;;;;;;24.15;62.21;101275.34;5082863;28;20040;-71
2022/09/07 07:09:14;;;;;;;11.65;9.02;;;;;;;24.38;61.21;101286.13;5072307;28;20029;-71
2022/09/07 07:11:42;;;;;;;19.10;8.75;;;;;;;24.09;62.26;101273.84;5082933;28;20598;-71
2022/09/07 07:14:13;;;;;;;12.95;10.73;;;;;;;24.01;62.31;101278.06;5084158;28;20039;-71
2022/09/07 07:16:38;;;;;;;20.73;11.10;;;;;;;24.28;62.33;101274.53;5076708;28;20117;-71
2022/09/07 07:19:04;;;;;;;19.58;10.70;;;;;;;24.43;62.00;101287.97;5072427;28;20480;-71
2022/09/07 07:21:29;;;;;;;16.27;11.98;;;;;;;24.25;62.05;101277.91;5071768;28;20056;-74
2022/09/07 07:23:54;;;;;;;20.75;15.32;;;;;;;24.32;61.58;101290.09;5089803;28;20016;-72
2022/09/07 07:26:25;;;;;;;19.70;15.40;;;;;;;24.10;63.05;101290.00;5078238;28;20041;-73
2022/09/07 07:28:52;;;;;;;27.15;19.15;;;;;;;23.60;64.09;101277.19;5080232;28;20507;-70
2022/09/07 07:31:19;;;;;;;25.77;19.63;;;;;;;23.83;63.16;101273.47;5085241;28;20058;-73
2022/09/07 07:33:59;;;;;;;27.20;19.17;;;;;;;23.97;62.41;101278.97;5071998;28;20107;-71
2022/09/07 07:36:26;;;;;;;23.15;18.80;;;;;;;24.26;61.60;101279.53;5046767;28;20063;-72
2022/09/07 07:38:53;;;;;;;27.05;19.10;;;;;;;23.54;63.01;101289.34;5078300;28;20028;-71
2022/09/07 07:41:21;;;;;;;26.05;20.52;;;;;;;23.19;64.18;101298.13;5078758;28;20060;-72
2022/09/07 07:43:47;;;;;;;26.67;19.90;;;;;;;23.59;63.97;101291.22;5092312;28;20032;-73
2022/09/07 07:46:13;;;;;;;25.65;19.65;;;;;;;24.07;62.42;101303.53;5085981;28;20055;-72
2022/09/07 07:48:39;;;;;;;23.83;20.23;;;;;;;23.87;63.17;101301.13;5091732;28;20028;-72
2022/09/07 07:51:08;;;;;;;24.00;19.20;;;;;;;23.82;63.39;101296.53;5070535;28;20070;-73
2022/09/07 07:53:35;;;;;;;25.05;18.52;;;;;;;24.23;62.64;101297.44;5080890;28;20073;-72
2022/09/07 07:56:02;;;;;;;22.80;18.35;;;;;;;23.71;62.81;101308.81;5076041;28;20064;-72
2022/09/07 07:58:29;;;;;;;25.33;17.58;;;;;;;23.73;63.10;101303.84;5084997;28;20039;-73
2022/09/07 08:01:01;;;;;;;21.85;16.80;;;;;;;23.97;61.56;101306.44;5075781;28;20045;-74
2022/09/07 08:03:27;;;;;;;22.48;18.20;;;;;;;24.38;60.80;101310.03;5085121;28;20034;-72
2022/09/07 08:05:54;;;;;;;22.13;15.63;;;;;;;24.12;61.75;101309.72;5086435;28;20448;-75
2022/09/07 08:08:19;;;;;;;18.25;16.27;;;;;;;23.88;62.38;101303.56;5079389;28;20564;-73
2022/09/07 08:10:46;;;;;;;18.63;15.43;;;;;;;24.38;60.85;101307.31;5075126;28;20131;-72
2022/09/07 08:13:13;;;;;;;20.85;15.50;;;;;;;24.31;61.37;101310.44;5081611;28;20028;-75
2022/09/07 08:15:45;;;;;;;18.27;15.48;;;;;;;24.21;61.37;101315.34;5077863;28;20404;-73
2022/09/07 08:18:11;;;;;;;26.42;15.77;;;;;;;24.49;60.98;101316.16;5082595;28;20031;-71
2022/09/07 08:20:40;;;;;;;17.88;14.82;;;;;;;24.76;60.13;101319.72;5078756;28;20558;-73
2022/09/07 08:23:07;;;;;;;18.15;15.50;;;;;;;24.77;60.54;101321.34;5087610;28;20043;-72
2022/09/07 08:25:33;;;;;;;18.55;15.68;;;;;;;25.17;59.42;101317.69;5088469;28;20029;-72
2022/09/07 08:27:59;;;;;;;19.25;15.43;;;;;;;25.02;58.88;101318.03;5077591;28;20115;-73
2022/09/07 08:30:24;;;;;;;17.17;14.18;;;;;;;25.35;59.21;101328.81;5091811;28;20442;-73
2022/09/07 08:32:50;;;;;;;16.90;14.30;;;;;;;24.88;59.09;101332.94;5081071;28;20028;-73
2022/09/07 08:35:16;;;;;;;21.13;14.77;;;;;;;24.29;60.98;101334.66;5091647;28;20043;-73
2022/09/07 08:37:41;;;;;;;15.82;13.98;;;;;;;24.34;61.11;101331.81;5076673;28;20071;-71
2022/09/07 08:40:09;;;;;;;17.90;13.85;;;;;;;24.18;60.93;101340.66;5084114;28;20036;-75
2022/09/07 08:42:58;;;;;;;16.27;13.32;;;;;;;24.56;60.29;101352.28;5085365;28;20135;-73
2022/09/07 08:45:33;;;;;;;19.65;14.57;;;;;;;24.82;59.22;101346.00;5070675;28;20028;-71
2022/09/07 08:47:59;;;;;;;16.70;14.68;;;;;;;24.38;59.94;101346.59;5071744;28;20036;-74
2022/09/07 08:50:40;;;;;;;21.88;14.68;;;;;;;25.09;58.70;101356.13;5091109;28;20522;-75
2022/09/07 08:53:16;;;;;;;21.00;15.55;;;;;;;24.98;59.04;101355.50;5062380;28;20036;-73
2022/09/07 08:55:50;;;;;;;20.48;15.73;;;;;;;24.64;59.27;101360.63;5074296;28;20067;-72
2022/09/07 08:58:22;;;;;;;16.70;13.57;;;;;;;24.63;59.58;101369.19;5090647;28;20036;-72
2022/09/07 09:00:48;;;;;;;18.70;15.60;;;;;;;24.88;59.11;101357.69;5080001;28;20036;-73
2022/09/07 09:03:35;;;;;;;16.95;14.73;;;;;;;24.55;59.43;101359.69;5090760;28;20040;-73
2022/09/07 09:06:25;;;;;;;16.02;14.10;;;;;;;24.92;58.74;101364.19;5091358;28;20178;-73
2022/09/07 09:09:25;;;;;;;18.23;14.70;;;;;;;25.01;58.66;101368.66;5079557;28;20048;-74
2022/09/07 09:12:06;;;;;;;18.02;15.05;;;;;;;25.16;58.66;101364.75;5090643;28;20054;-74
2022/09/07 09:14:38;;;;;;;17.83;14.63;;;;;;;25.58;57.12;101366.28;5081652;28;20048;-72
2022/09/07 09:17:11;;;;;;;20.77;15.82;;;;;;;25.55;57.57;101369.66;5077524;28;20123;-73
2022/09/07 09:19:53;;;;;;;19.38;14.27;;;;;;;25.47;57.43;101373.16;5085540;28;20415;-71
2022/09/07 09:22:22;;;;;;;18.42;14.30;;;;;;;25.91;56.17;101379.47;5075372;28;20124;-73
2022/09/07 09:24:53;;;;;;;17.30;12.50;;;;;;;25.79;56.49;101375.66;5076595;28;20043;-74
2022/09/07 09:27:18;;;;;;;14.32;11.55;;;;;;;25.00;56.68;101357.97;5088125;28;20070;-73
2022/09/07 09:29:44;;;;;;;18.25;12.57;;;;;;;25.61;56.15;101362.91;5090826;28;20376;-73
2022/09/07 09:32:40;;;;;;;13.77;11.90;;;;;;;25.90;55.45;101357.75;5082135;28;20040;-74
2022/09/07 09:35:24;;;;;;;14.15;11.88;;;;;;;25.40;56.18;101364.50;5075752;28;20377;-75
2022/09/07 09:37:50;;;;;;;17.60;12.52;;;;;;;25.34;57.01;101354.69;5070475;28;20062;-74
2022/09/07 09:40:20;;;;;;;17.67;11.63;;;;;;;25.76;55.78;101368.84;5073350;28;20040;-74
2022/09/07 09:42:46;;;;;;;12.38;11.13;;;;;;;25.29;57.81;101363.91;5078023;28;20036;-73
2022/09/07 09:45:18;;;;;;;13.98;11.30;;;;;;;25.84;56.71;101353.50;5090490;28;20442;-72
2022/09/07 09:47:49;;;;;;;12.15;10.93;;;;;;;26.34;54.61;101356.88;5074465;28;20043;-73
2022/09/07 09:50:20;;;;;;;18.95;11.73;;;;;;;25.90;55.80;101366.03;5089819;28;20259;-74
2022/09/07 09:52:47;;;;;;;12.77;10.52;;;;;;;25.81;56.26;101362.38;5068144;28;20142;-75
2022/09/07 09:55:33;;;;;;;12.43;10.20;;;;;;;26.46;54.97;101359.84;5083996;28;20047;-74
2022/09/07 09:58:01;;;;;;;15.13;10.52;;;;;;;25.67;55.98;101367.94;5066826;28;20124;-72
2022/09/07 10:00:30;;;;;;;12.52;10.07;;;;;;;26.54;53.74;101364.56;5066333;28;20378;-75
2022/09/07 10:03:01;;;;;;;17.48;11.57;;;;;;;27.03;52.87;101355.97;5087080;28;20039;-74
2022/09/07 10:05:32;;;;;;;12.07;8.98;;;;;;;26.99;52.41;101362.47;5086407;28;20086;-75
2022/09/07 10:07:57;;;;;;;;;;;;;;;26.55;52.59;101361.50;5075984;28;20036;-74
2022/09/07 10:10:25;;;;;;;11.82;8.50;;;;;;;27.35;51.30;101363.00;5059510;28;19999;-74
2022/09/07 10:12:55;;;;;;;12.63;9.23;;;;;;;27.36;51.10;101357.16;5066527;28;20262;-61
2022/09/07 10:15:33;;;;;;;16.23;9.30;;;;;;;27.65;50.00;101359.25;5070707;28;20067;-62
2022/09/07 10:17:59;;;;;;;12.02;8.68;;;;;;;27.46;50.09;101356.81;5071241;28;20088;-63
2022/09/07 10:20:32;;;;;;;10.88;8.73;;;;;;;27.62;49.22;101357.13;5082234;28;20161;-64
2022/09/07 10:22:59;;;;;;;10.35;7.97;;;;;;;27.44;50.33;101350.81;5089730;28;20119;-65
2022/09/07 10:25:36;;;;;;;10.02;7.03;;;;;;;27.95;48.89;101351.94;5077691;28;20048;-64
2022/09/07 10:28:04;;;;;;;11.23;7.88;;;;;;;28.54;47.44;101348.09;5085312;28;20035;-63
2022/09/07 10:30:39;;;;;;;15.63;7.32;;;;;;;28.74;47.55;101343.81;5078864;28;20056;-66
2022/09/07 10:33:17;;;;;;;10.98;8.25;;;;;;;27.87;49.43;101348.03;5081596;28;20692;-63
2022/09/07 10:35:54;;;;;;;10.77;8.00;;;;;;;28.41;47.31;101349.16;5083389;28;20064;-63
2022/09/07 10:38:24;;;;;;;10.20;7.60;;;;;;;29.27;47.20;101353.06;5087293;28;20412;-63
2022/09/07 10:41:03;;;;;;;9.15;5.97;;;;;;;29.35;46.14;101343.88;5086314;28;20043;-62
2022/09/07 10:43:45;;;;;;;12.85;7.45;;;;;;;27.85;48.14;101344.78;5076423;28;20055;-63
2022/09/07 10:46:33;;;;;;;7.88;6.85;;;;;;;27.59;49.56;101342.06;5085262;28;20036;-63
2022/09/07 10:49:11;;;;;;;12.20;6.97;;;;;;;28.10;50.26;101335.63;5082729;28;20064;-62
2022/09/07 10:51:55;;;;;;;9.27;7.43;;;;;;;27.45;48.77;101333.13;5072938;28;20043;-64
2022/09/07 10:54:29;;;;;;;11.07;7.97;;;;;;;28.03;47.29;101334.50;5072844;28;20299;-63
2022/09/07 10:57:16;;;;;;;9.45;7.90;;;;;;;28.01;46.87;101332.06;5081986;28;20106;-62
2022/09/07 10:59:52;;;;;;;12.13;7.40;;;;;;;28.48;47.33;101330.09;5081983;28;20044;-63
2022/09/07 11:02:38;;;;;;;8.70;7.43;;;;;;;28.29;48.20;101326.91;5078411;28;20044;-62
2022/09/07 11:05:13;;;;;;;8.85;7.38;;;;;;;28.55;46.64;101331.22;5076887;28;20133;-62
2022/09/07 11:07:53;;;;;;;11.52;6.80;;;;;;;28.55;46.79;101333.16;5078127;28;20126;-64
2022/09/07 11:10:18;;;;;;;;;;;;;;;28.53;47.05;101333.47;5078214;28;20052;-63
2022/09/07 11:12:45;;;;;;;7.13;6.28;;;;;;;28.54;47.39;101329.59;5081570;28;19945;-63
2022/09/07 11:15:10;;;;;;;9.35;6.88;;;;;;;28.73;45.73;101331.94;5083112;28;20504;-63
2022/09/07 11:18:06;;;;;;;10.43;7.57;;;;;;;29.18;45.77;101329.34;5078723;28;20468;-63
2022/09/07 11:20:31;;;;;;;8.23;4.85;;;;;;;28.48;44.03;101327.34;5080775;28;20067;-63
2022/09/07 11:23:13;;;;;;;9.27;5.15;;;;;;;29.07;43.78;101336.44;5079035;28;20147;-64
2022/09/07 11:25:56;;;;;;;7.32;5.88;;;;;;;28.43;44.50;101324.75;5076020;28;20492;-62
2022/09/07 11:28:26;;;;;;;8.73;5.75;;;;;;;28.49;45.12;101324.22;5078313;28;20048;-65
2022/09/07 11:30:58;;;;;;;8.32;5.32;;;;;;;28.64;43.42;101328.38;5059400;28;20036;-63